Pagina principale
METAR-TAF:

METAR-TAF

Aeroporti :

Piešťany, Slovacchia

latitudine: 48-37-30N, longitudine: 017-49-43E, altezza: 163 m

Osservazione

Il bollettino è stato emesso 37 minuti fa, alle 13:30 UTC
Vento 5 kt da sud-ovest, variando fra sud e ovest/sud-ovest
Temperature 27°C
Umidità 42%
Pressione 1015 hPa
Visibilità 10 km o più
nessuna nube inferiore a 1500 m e nessun cumulonembo

METAR: LZPP 171330Z 22005KT 190V250 CAVOK 27/13 Q1015

Ora: 16:07 (14:07 UTC)

Previsione

Il bollettino è stato emesso 2 ore e 52 minuti fa, alle 11:15 UTC
Previsione valida dal 17 alle 12 UTC al 17 alle 21 UTC
Vento 5 kt da nord-ovest
Visibilità 10 km o più
nessuna nube inferiore a 1500 m e nessun cumulonembo
Temporaneamente
dal 17 alle 12 UTC al 17 alle 15 UTC
Visibilità 10 km o più
Nubi sparse ad un'altezza di 4500 ft

TAF: LZPP 171115Z 1712/1721 31005KT CAVOK TEMPO 1712/1715 9999 SCT045

Osservazioni e previsioni meteorologiche di più di 4000 aeroporti (messaggi METAR e TAF).

Le stazioni disponibili sono rappresentate dai dischi gialli e rossi sulla carta.

Puntare il mouse per vedere il nome della stazione.

Clicca sopra per visualizzare le osservazioni e previsioni meteorologiche.

Per cambiare la mappa : fare clic sui pulsanti verdi con una croce nera per ingrandire, il pulsante verde con un trattino per diminuire, o sulla freccia verde per le mappe adiacenti.


METAR-TAF: